createdAt,value
2023-02-24T00:00:33.958Z,8.65
2023-02-24T00:01:14.035Z,8.62
2023-02-24T00:01:52.711Z,8.65
2023-02-24T00:02:24.622Z,8.66
2023-02-24T00:02:56.351Z,8.66
2023-02-24T00:03:28.098Z,8.62
2023-02-24T00:04:00.683Z,8.56
2023-02-24T00:04:39.611Z,8.64
2023-02-24T00:05:11.365Z,8.62
2023-02-24T00:05:44.669Z,8.66
2023-02-24T00:06:16.401Z,8.65
2023-02-24T00:06:48.806Z,8.62
2023-02-24T00:07:21.040Z,8.66
2023-02-24T00:07:52.769Z,8.65
2023-02-24T00:08:24.375Z,8.51
2023-02-24T00:08:56.167Z,8.61
2023-02-24T00:09:30.108Z,8.61
2023-02-24T00:10:02.803Z,8.62
2023-02-24T00:10:37.739Z,8.55
2023-02-24T00:11:13.954Z,8.58
2023-02-24T00:11:48.982Z,8.58
2023-02-24T00:12:21.022Z,8.58
2023-02-24T00:12:54.078Z,8.49
2023-02-24T00:13:25.769Z,8.46
2023-02-24T00:13:57.749Z,8.49
2023-02-24T00:14:32.631Z,8.49
2023-02-24T00:15:05.111Z,8.49
2023-02-24T00:15:36.679Z,8.52
2023-02-24T00:16:08.540Z,8.46
2023-02-24T00:16:40.384Z,8.44
2023-02-24T00:17:16.290Z,8.40
2023-02-24T00:17:47.992Z,8.44
2023-02-24T00:18:19.596Z,8.44
2023-02-24T00:18:51.600Z,8.44
2023-02-24T00:19:25.203Z,8.41
2023-02-24T00:19:57.425Z,8.38
2023-02-24T00:20:29.105Z,8.38
2023-02-24T00:21:13.046Z,8.40
2023-02-24T00:21:45.923Z,8.38
2023-02-24T00:22:17.543Z,8.35
2023-02-24T00:22:49.236Z,8.34
2023-02-24T00:23:21.174Z,8.35
2023-02-24T00:23:53.760Z,8.31
2023-02-24T00:24:26.235Z,8.31
2023-02-24T00:25:01.530Z,8.35
2023-02-24T00:25:33.239Z,8.30
2023-02-24T00:26:06.897Z,8.34
2023-02-24T00:26:38.736Z,8.33
2023-02-24T00:27:13.310Z,8.31
2023-02-24T00:27:44.893Z,8.24
2023-02-24T00:28:16.533Z,8.25
2023-02-24T00:28:48.182Z,8.33
2023-02-24T00:29:20.948Z,8.24
2023-02-24T00:29:52.545Z,8.28
2023-02-24T00:30:24.191Z,8.27
2023-02-24T00:30:56.182Z,8.25
2023-02-24T00:31:31.321Z,8.25
2023-02-24T00:32:07.027Z,8.28
2023-02-24T00:32:39.106Z,8.21
2023-02-24T00:33:12.505Z,8.18
2023-02-24T00:33:45.728Z,8.20
2023-02-24T00:34:18.188Z,8.16
2023-02-24T00:34:50.009Z,8.20
2023-02-24T00:35:21.688Z,8.21
2023-02-24T00:35:53.368Z,8.24
2023-02-24T00:36:25.408Z,8.17
2023-02-24T00:36:58.689Z,8.18
2023-02-24T00:37:30.721Z,8.20
2023-02-24T00:38:02.406Z,8.14
2023-02-24T00:38:36.071Z,8.14
2023-02-24T00:39:09.840Z,8.14
2023-02-24T00:39:44.381Z,8.14
2023-02-24T00:40:16.046Z,8.13
2023-02-24T00:40:48.154Z,8.08
2023-02-24T00:41:22.675Z,8.04
2023-02-24T00:41:58.262Z,8.03
2023-02-24T00:42:29.959Z,8.04
2023-02-24T00:43:01.718Z,8.07
2023-02-24T00:43:37.355Z,8.03
2023-02-24T00:44:14.233Z,8.03
2023-02-24T00:44:47.331Z,8.04
2023-02-24T00:45:18.949Z,8.03
2023-02-24T00:45:51.795Z,8.01
2023-02-24T00:46:26.101Z,8.06
2023-02-24T00:46:57.699Z,8.04
2023-02-24T00:47:29.383Z,8.06
2023-02-24T00:48:00.939Z,8.07
2023-02-24T00:48:32.557Z,8.01
2023-02-24T00:49:07.295Z,8.06
2023-02-24T00:49:43.724Z,8.01
2023-02-24T00:50:15.336Z,8.01
2023-02-24T00:50:46.933Z,7.98
2023-02-24T00:51:23.555Z,8.00
2023-02-24T00:51:55.819Z,7.97
2023-02-24T00:52:27.971Z,7.98
2023-02-24T00:52:59.610Z,7.97
2023-02-24T00:53:31.222Z,7.98
2023-02-24T00:54:03.449Z,8.00
2023-02-24T00:54:38.400Z,8.01
2023-02-24T00:55:14.626Z,7.93
2023-02-24T00:55:46.238Z,8.03
2023-02-24T00:56:18.452Z,7.97
2023-02-24T00:56:50.519Z,8.00
2023-02-24T00:57:22.370Z,8.03
2023-02-24T00:57:54.091Z,8.06
2023-02-24T00:58:30.041Z,8.03
2023-02-24T00:59:02.869Z,8.06
2023-02-24T00:59:36.112Z,7.98
2023-02-24T01:00:15.280Z,8.01
2023-02-24T01:00:47.676Z,8.03
2023-02-24T01:01:22.090Z,8.07
2023-02-24T01:01:54.992Z,8.08
2023-02-24T01:02:26.796Z,8.06
2023-02-24T01:02:59.475Z,8.03
2023-02-24T01:03:32.512Z,8.00
2023-02-24T01:04:06.627Z,8.01
2023-02-24T01:04:38.720Z,8.04
2023-02-24T01:05:12.164Z,8.04
2023-02-24T01:05:43.883Z,8.04
2023-02-24T01:06:20.760Z,8.04
2023-02-24T01:07:00.422Z,8.04
2023-02-24T01:07:32.318Z,8.04
2023-02-24T01:08:04.063Z,7.97
2023-02-24T01:08:42.795Z,7.98
2023-02-24T01:09:20.092Z,8.03
2023-02-24T01:09:51.801Z,7.91
2023-02-24T01:10:23.646Z,7.91
2023-02-24T01:11:18.011Z,7.96
2023-02-24T01:12:21.769Z,7.93
2023-02-24T01:12:54.114Z,7.94
2023-02-24T01:13:25.951Z,7.98
2023-02-24T01:13:57.585Z,8.00
2023-02-24T01:14:32.460Z,8.00
2023-02-24T01:15:05.513Z,7.97
2023-02-24T01:15:37.208Z,7.96
2023-02-24T01:16:09.017Z,7.96
2023-02-24T01:16:42.568Z,7.97
2023-02-24T01:17:15.390Z,7.91
2023-02-24T01:17:47.947Z,7.89
2023-02-24T01:18:19.603Z,7.93
2023-02-24T01:18:51.994Z,7.86
2023-02-24T01:19:30.633Z,7.94
2023-02-24T01:20:16.066Z,7.96
2023-02-24T01:20:49.084Z,7.91
2023-02-24T01:21:21.807Z,7.90
2023-02-24T01:21:55.270Z,7.96
2023-02-24T01:22:27.583Z,7.93
2023-02-24T01:22:59.181Z,7.94
2023-02-24T01:23:31.074Z,7.94
2023-02-24T01:24:03.178Z,7.93
2023-02-24T01:24:37.631Z,7.91
2023-02-24T01:25:09.569Z,7.90
2023-02-24T01:25:47.426Z,7.93
2023-02-24T01:26:19.729Z,7.90
2023-02-24T01:26:51.573Z,7.86
2023-02-24T01:27:23.266Z,7.85
2023-02-24T01:27:55.221Z,7.90
2023-02-24T01:28:27.362Z,7.87
2023-02-24T01:28:59.324Z,7.86
2023-02-24T01:29:31.559Z,7.94
2023-02-24T01:30:05.138Z,7.94
2023-02-24T01:30:37.392Z,7.94
2023-02-24T01:31:09.851Z,7.94
2023-02-24T01:31:43.745Z,7.94
2023-02-24T01:32:20.109Z,7.91
2023-02-24T01:32:51.966Z,7.93
2023-02-24T01:33:23.816Z,7.91
2023-02-24T01:33:55.652Z,7.87
2023-02-24T01:34:28.532Z,7.82
2023-02-24T01:35:00.206Z,7.87
2023-02-24T01:35:34.767Z,7.91
2023-02-24T01:36:17.816Z,7.89
2023-02-24T01:36:49.891Z,7.89
2023-02-24T01:37:21.761Z,7.87
2023-02-24T01:37:53.438Z,7.91
2023-02-24T01:38:25.426Z,7.90
2023-02-24T01:38:58.946Z,7.85
2023-02-24T01:39:30.634Z,7.86
2023-02-24T01:40:10.584Z,7.89
2023-02-24T01:40:42.384Z,7.97
2023-02-24T01:41:20.331Z,7.94
2023-02-24T01:41:53.143Z,7.94
2023-02-24T01:42:24.876Z,7.94
2023-02-24T01:42:56.492Z,7.93
2023-02-24T01:43:28.125Z,7.91
2023-02-24T01:44:32.865Z,7.94
2023-02-24T01:45:13.523Z,7.91
2023-02-24T01:45:45.148Z,7.96
2023-02-24T01:46:17.644Z,7.94
2023-02-24T01:46:52.364Z,7.94
2023-02-24T01:47:29.119Z,7.91
2023-02-24T01:48:05.773Z,7.93
2023-02-24T01:48:37.354Z,7.91
2023-02-24T01:49:13.047Z,7.91
2023-02-24T01:49:47.673Z,7.94
2023-02-24T01:50:22.157Z,7.89
2023-02-24T01:50:53.876Z,7.85
2023-02-24T01:51:29.136Z,7.89
2023-02-24T01:52:10.590Z,7.91
2023-02-24T01:52:45.376Z,7.91
2023-02-24T01:53:18.226Z,7.93
2023-02-24T01:53:49.908Z,7.94
2023-02-24T01:54:25.413Z,7.94
2023-02-24T01:55:14.124Z,7.98
2023-02-24T01:55:52.308Z,7.94
2023-02-24T01:56:24.052Z,7.93
2023-02-24T01:56:57.581Z,7.93
2023-02-24T01:57:33.530Z,7.91
2023-02-24T01:58:11.729Z,7.93
2023-02-24T01:58:43.818Z,7.93
2023-02-24T01:59:18.582Z,7.94
2023-02-24T01:59:54.125Z,7.87
2023-02-24T02:00:37.504Z,7.87
2023-02-24T02:01:10.313Z,7.85
2023-02-24T02:01:43.728Z,7.89
2023-02-24T02:02:16.578Z,7.90
2023-02-24T02:02:53.404Z,7.93
2023-02-24T02:03:29.896Z,7.90
2023-02-24T02:04:09.745Z,7.90
2023-02-24T02:04:48.084Z,7.89
2023-02-24T02:05:21.195Z,7.90
2023-02-24T02:05:56.151Z,7.91
2023-02-24T02:06:28.548Z,7.96
2023-02-24T02:07:01.406Z,7.93
2023-02-24T02:07:33.577Z,7.94
2023-02-24T02:08:05.366Z,7.96
2023-02-24T02:08:40.277Z,7.91
2023-02-24T02:09:15.320Z,7.93
2023-02-24T02:09:48.375Z,7.91
2023-02-24T02:10:20.613Z,7.91
2023-02-24T02:10:58.928Z,7.97
2023-02-24T02:11:30.625Z,8.01
2023-02-24T02:12:02.244Z,7.98
2023-02-24T02:12:44.359Z,7.96
2023-02-24T02:13:21.678Z,7.97
2023-02-24T02:13:53.968Z,7.89
2023-02-24T02:14:27.958Z,7.89
2023-02-24T02:14:59.746Z,7.89
2023-02-24T02:15:34.890Z,7.91
2023-02-24T02:16:24.755Z,7.91
2023-02-24T02:17:40.974Z,7.86
2023-02-24T02:18:25.093Z,7.87
2023-02-24T02:19:05.730Z,7.86
2023-02-24T02:19:39.949Z,7.85
2023-02-24T02:20:31.237Z,7.87
2023-02-24T02:21:28.377Z,7.83
2023-02-24T02:22:08.637Z,7.85
2023-02-24T02:23:07.205Z,7.83
2023-02-24T02:24:04.677Z,7.85
2023-02-24T02:24:52.515Z,7.82
2023-02-24T02:25:41.150Z,7.77
2023-02-24T02:26:32.682Z,7.79
2023-02-24T02:27:47.217Z,7.77
2023-02-24T02:28:45.589Z,7.79
2023-02-24T02:29:41.855Z,7.79
2023-02-24T02:30:28.462Z,7.79
2023-02-24T02:31:12.906Z,7.80
2023-02-24T02:32:06.324Z,7.73
2023-02-24T02:33:00.401Z,7.77
2023-02-24T02:34:00.114Z,7.76
2023-02-24T02:34:41.120Z,7.77
2023-02-24T02:35:19.228Z,7.80
2023-02-24T02:36:22.866Z,7.77
2023-02-24T02:37:30.764Z,7.73
2023-02-24T02:38:15.423Z,7.73
2023-02-24T02:39:03.648Z,7.79
2023-02-24T02:40:08.237Z,7.77
2023-02-24T02:40:45.831Z,7.77
2023-02-24T02:41:17.433Z,7.76
2023-02-24T02:41:51.621Z,7.73
2023-02-24T02:42:36.883Z,7.73
2023-02-24T02:43:24.710Z,7.72
2023-02-24T02:43:58.826Z,7.75
2023-02-24T02:44:33.178Z,7.73
2023-02-24T02:45:25.947Z,7.69
2023-02-24T02:46:05.844Z,7.72
2023-02-24T02:46:44.714Z,7.72
2023-02-24T02:47:33.084Z,7.70
2023-02-24T02:48:15.989Z,7.75
2023-02-24T02:48:56.922Z,7.76
2023-02-24T02:49:32.402Z,7.73
2023-02-24T02:50:48.494Z,7.73
2023-02-24T02:51:27.259Z,7.79
2023-02-24T02:52:06.277Z,7.73
2023-02-24T02:52:45.597Z,7.72
2023-02-24T02:53:27.913Z,7.67
2023-02-24T02:54:10.514Z,7.65
2023-02-24T02:55:07.271Z,7.65
2023-02-24T02:55:45.913Z,7.67
2023-02-24T02:56:32.009Z,7.73
2023-02-24T02:57:18.716Z,7.75
2023-02-24T02:57:54.246Z,7.69
2023-02-24T02:58:31.166Z,7.73
2023-02-24T02:59:05.382Z,7.76
2023-02-24T02:59:43.034Z,7.77
2023-02-24T03:00:21.503Z,7.75
2023-02-24T03:01:04.676Z,7.70
2023-02-24T03:01:39.242Z,7.72
2023-02-24T03:02:13.889Z,7.72
2023-02-24T03:02:51.065Z,7.69
2023-02-24T03:03:26.325Z,7.70
2023-02-24T03:04:04.757Z,7.67
2023-02-24T03:04:36.506Z,7.70
2023-02-24T03:05:10.938Z,7.70
2023-02-24T03:05:57.261Z,7.76
2023-02-24T03:06:44.555Z,7.67
2023-02-24T03:07:18.063Z,7.67
2023-02-24T03:07:53.610Z,7.61
2023-02-24T03:08:29.728Z,7.63
2023-02-24T03:09:12.385Z,7.61
2023-02-24T03:09:51.131Z,7.58
2023-02-24T03:10:27.694Z,7.58
2023-02-24T03:11:01.691Z,7.58
2023-02-24T03:11:33.821Z,7.58
2023-02-24T03:12:10.830Z,7.55
2023-02-24T03:12:44.696Z,7.54
2023-02-24T03:13:19.840Z,7.54
2023-02-24T03:13:56.044Z,7.54
2023-02-24T03:14:33.242Z,7.56
2023-02-24T03:15:11.026Z,7.59
2023-02-24T03:15:45.057Z,7.66
2023-02-24T03:16:19.225Z,7.63
2023-02-24T03:16:53.019Z,7.62
2023-02-24T03:17:29.005Z,7.59
2023-02-24T03:18:10.750Z,7.63
2023-02-24T03:18:51.027Z,7.62
2023-02-24T03:19:31.082Z,7.63
2023-02-24T03:20:16.664Z,7.66
2023-02-24T03:20:52.994Z,7.67
2023-02-24T03:21:33.421Z,7.72
2023-02-24T03:22:12.490Z,7.69
2023-02-24T03:22:53.919Z,7.66
2023-02-24T03:23:30.983Z,7.65
2023-02-24T03:24:05.870Z,7.67
2023-02-24T03:24:39.183Z,7.66
2023-02-24T03:25:11.439Z,7.67
2023-02-24T03:25:51.868Z,7.66
2023-02-24T03:26:41.716Z,7.58
2023-02-24T03:27:35.316Z,7.62
2023-02-24T03:28:16.556Z,7.65
2023-02-24T03:29:11.778Z,7.62
2023-02-24T03:29:50.632Z,7.63
2023-02-24T03:30:28.837Z,7.63
2023-02-24T03:31:07.282Z,7.65
2023-02-24T03:31:46.702Z,7.66
2023-02-24T03:32:33.538Z,7.66
2023-02-24T03:33:16.796Z,7.58
2023-02-24T03:34:01.464Z,7.54
2023-02-24T03:34:37.657Z,7.52
2023-02-24T03:35:17.184Z,7.54
2023-02-24T03:35:51.861Z,7.55
2023-02-24T03:36:23.505Z,7.59
2023-02-24T03:36:56.453Z,7.56
2023-02-24T03:37:30.029Z,7.56
2023-02-24T03:38:03.604Z,7.56
2023-02-24T03:38:38.629Z,7.59
2023-02-24T03:39:12.195Z,7.58
2023-02-24T03:39:47.000Z,7.59
2023-02-24T03:40:20.867Z,7.61
2023-02-24T03:40:53.481Z,7.59
2023-02-24T03:41:31.614Z,7.61
2023-02-24T03:42:18.219Z,7.65
2023-02-24T03:42:54.356Z,7.69
2023-02-24T03:43:35.486Z,7.69
2023-02-24T03:44:11.349Z,7.66
2023-02-24T03:44:44.184Z,7.67
2023-02-24T03:45:17.227Z,7.72
2023-02-24T03:45:49.108Z,7.62
2023-02-24T03:46:20.790Z,7.67
2023-02-24T03:46:53.028Z,7.67
2023-02-24T03:47:26.056Z,7.69
2023-02-24T03:47:59.910Z,7.66
2023-02-24T03:48:33.104Z,7.63
2023-02-24T03:49:17.047Z,7.63
2023-02-24T03:49:48.648Z,7.56
2023-02-24T03:50:26.998Z,7.55
2023-02-24T03:50:59.624Z,7.56
2023-02-24T03:51:31.809Z,7.59
2023-02-24T03:52:36.314Z,7.56
2023-02-24T03:53:22.449Z,7.62
2023-02-24T03:54:09.190Z,7.62
2023-02-24T03:54:56.198Z,7.62
2023-02-24T03:55:43.195Z,7.59
2023-02-24T03:56:45.928Z,7.55
2023-02-24T03:57:26.510Z,7.52
2023-02-24T03:58:16.919Z,7.51
2023-02-24T03:58:57.583Z,7.61
2023-02-24T03:59:43.242Z,7.56
2023-02-24T04:00:26.513Z,7.62
2023-02-24T04:01:06.846Z,7.65
2023-02-24T04:02:06.108Z,7.62
2023-02-24T04:02:38.821Z,7.63
2023-02-24T04:03:31.240Z,7.69
2023-02-24T04:04:22.004Z,7.62
2023-02-24T04:04:56.679Z,7.61
2023-02-24T04:05:31.601Z,7.63
2023-02-24T04:06:19.167Z,7.62
2023-02-24T04:07:09.851Z,7.66
2023-02-24T04:07:53.263Z,7.61
2023-02-24T04:08:27.719Z,7.55
2023-02-24T04:09:29.346Z,7.54
2023-02-24T04:10:04.775Z,7.54
2023-02-24T04:10:42.992Z,7.59
2023-02-24T04:11:26.908Z,7.58
2023-02-24T04:12:09.358Z,7.56
2023-02-24T04:12:55.477Z,7.61
2023-02-24T04:13:36.003Z,7.52
2023-02-24T04:14:18.752Z,7.49
2023-02-24T04:15:09.180Z,7.44
2023-02-24T04:15:45.619Z,7.46
2023-02-24T04:16:28.323Z,7.51
2023-02-24T04:17:09.050Z,7.54
2023-02-24T04:17:48.988Z,7.52
2023-02-24T04:18:24.295Z,7.48
2023-02-24T04:19:03.992Z,7.45
2023-02-24T04:19:40.579Z,7.44
2023-02-24T04:20:20.456Z,7.42
2023-02-24T04:20:53.565Z,7.39
2023-02-24T04:21:28.414Z,7.39
2023-02-24T04:22:00.911Z,7.42
2023-02-24T04:22:33.173Z,7.36
2023-02-24T04:23:10.964Z,7.36
2023-02-24T04:23:45.210Z,7.38
2023-02-24T04:24:21.413Z,7.36
2023-02-24T04:24:59.733Z,7.42
2023-02-24T04:25:32.485Z,7.39
2023-02-24T04:26:04.990Z,7.38
2023-02-24T04:26:40.563Z,7.39
2023-02-24T04:27:14.134Z,7.35
2023-02-24T04:27:47.529Z,7.38
2023-02-24T04:28:22.954Z,7.38
2023-02-24T04:28:56.453Z,7.38
2023-02-24T04:29:35.785Z,7.44
2023-02-24T04:30:10.852Z,7.45
2023-02-24T04:30:48.562Z,7.39
2023-02-24T04:31:23.008Z,7.38
2023-02-24T04:32:00.997Z,7.39
2023-02-24T04:32:33.609Z,7.38
2023-02-24T04:33:05.402Z,7.41
2023-02-24T04:33:38.659Z,7.38
2023-02-24T04:34:10.873Z,7.42
2023-02-24T04:34:42.840Z,7.42
2023-02-24T04:35:19.509Z,7.39
2023-02-24T04:35:51.384Z,7.36
2023-02-24T04:36:23.159Z,7.38
2023-02-24T04:36:55.064Z,7.38
2023-02-24T04:37:26.734Z,7.44
2023-02-24T04:37:59.182Z,7.39
2023-02-24T04:38:31.496Z,7.41
2023-02-24T04:39:05.081Z,7.38
2023-02-24T04:39:39.806Z,7.36
2023-02-24T04:40:17.882Z,7.41
2023-02-24T04:40:52.361Z,7.36
2023-02-24T04:41:24.798Z,7.42
2023-02-24T04:41:57.794Z,7.44
2023-02-24T04:42:29.947Z,7.42
2023-02-24T04:43:03.120Z,7.42
2023-02-24T04:43:36.060Z,7.39
2023-02-24T04:44:07.660Z,7.44
2023-02-24T04:44:39.283Z,7.41
2023-02-24T04:45:13.070Z,7.41
2023-02-24T04:45:44.838Z,7.42
2023-02-24T04:46:17.768Z,7.41
2023-02-24T04:46:50.400Z,7.42
2023-02-24T04:47:21.962Z,7.46
2023-02-24T04:47:56.512Z,7.48
2023-02-24T04:48:30.293Z,7.44
2023-02-24T04:49:02.329Z,7.44
2023-02-24T04:49:34.363Z,7.46
2023-02-24T04:50:06.938Z,7.45
2023-02-24T04:50:41.989Z,7.41
2023-02-24T04:51:13.859Z,7.42
2023-02-24T04:51:45.818Z,7.49
2023-02-24T04:52:17.881Z,7.39
2023-02-24T04:53:01.124Z,7.28
2023-02-24T04:53:32.787Z,7.34
2023-02-24T04:54:04.504Z,7.28
2023-02-24T04:54:36.383Z,7.28
2023-02-24T04:55:10.402Z,7.29
2023-02-24T04:55:48.914Z,7.29
2023-02-24T04:56:22.480Z,7.28
2023-02-24T04:56:56.214Z,7.29
2023-02-24T04:57:28.522Z,7.27
2023-02-24T04:58:01.718Z,7.28
2023-02-24T04:58:33.318Z,7.28
2023-02-24T04:59:05.136Z,7.32
2023-02-24T04:59:38.140Z,7.32
2023-02-24T05:00:20.637Z,7.31
2023-02-24T05:00:55.961Z,7.27
2023-02-24T05:01:27.677Z,7.32
2023-02-24T05:02:01.728Z,7.34
2023-02-24T05:02:33.456Z,7.32
2023-02-24T05:03:06.595Z,7.29
2023-02-24T05:03:42.640Z,7.31
2023-02-24T05:04:14.760Z,7.32
2023-02-24T05:04:49.713Z,7.31
2023-02-24T05:05:26.353Z,7.34
2023-02-24T05:06:00.362Z,7.27
2023-02-24T05:06:32.578Z,7.22
2023-02-24T05:07:04.539Z,7.24
2023-02-24T05:07:36.152Z,7.25
2023-02-24T05:08:09.838Z,7.28
2023-02-24T05:08:41.593Z,7.25
2023-02-24T05:09:18.161Z,7.24
2023-02-24T05:09:49.827Z,7.19
2023-02-24T05:10:28.126Z,7.19
2023-02-24T05:11:06.021Z,7.21
2023-02-24T05:11:38.079Z,7.22
2023-02-24T05:12:09.761Z,7.21
2023-02-24T05:12:42.711Z,7.25
2023-02-24T05:13:28.059Z,7.25
2023-02-24T05:13:59.870Z,7.28
2023-02-24T05:14:31.825Z,7.29
2023-02-24T05:15:04.208Z,7.29
2023-02-24T05:15:40.604Z,7.24
2023-02-24T05:16:14.239Z,7.28
2023-02-24T05:16:47.751Z,7.31
2023-02-24T05:17:20.194Z,7.29
2023-02-24T05:17:53.346Z,7.22
2023-02-24T05:18:26.977Z,7.18
2023-02-24T05:19:17.325Z,7.24
2023-02-24T05:20:07.468Z,7.18
2023-02-24T05:21:01.718Z,7.18
2023-02-24T05:21:36.509Z,7.21
2023-02-24T05:22:09.968Z,7.21
2023-02-24T05:22:41.938Z,7.24
2023-02-24T05:23:13.559Z,7.21
2023-02-24T05:23:46.911Z,7.19
2023-02-24T05:24:18.883Z,7.11
2023-02-24T05:24:50.558Z,7.17
2023-02-24T05:25:25.350Z,7.22
2023-02-24T05:25:57.298Z,7.19
2023-02-24T05:26:32.154Z,7.18
2023-02-24T05:27:04.114Z,7.22
2023-02-24T05:27:39.089Z,7.22
2023-02-24T05:28:11.239Z,7.29
2023-02-24T05:28:44.335Z,7.27
2023-02-24T05:29:15.981Z,7.24
2023-02-24T05:29:48.653Z,7.25
2023-02-24T05:30:20.609Z,7.29
2023-02-24T05:30:56.437Z,7.24
2023-02-24T05:31:30.933Z,7.22
2023-02-24T05:32:04.393Z,7.21
2023-02-24T05:32:36.754Z,7.19
2023-02-24T05:33:08.424Z,7.15
2023-02-24T05:33:42.793Z,7.18
2023-02-24T05:34:17.344Z,7.21
2023-02-24T05:34:49.293Z,7.14
2023-02-24T05:35:20.892Z,7.18
2023-02-24T05:35:52.974Z,7.19
2023-02-24T05:36:27.571Z,7.21
2023-02-24T05:37:01.572Z,7.25
2023-02-24T05:37:37.792Z,7.24
2023-02-24T05:38:09.404Z,7.29
2023-02-24T05:38:41.441Z,7.28
2023-02-24T05:39:19.257Z,7.31
2023-02-24T05:39:54.778Z,7.29
2023-02-24T05:40:28.369Z,7.28
2023-02-24T05:41:17.053Z,7.27
2023-02-24T05:41:49.830Z,7.22
2023-02-24T05:42:22.000Z,7.21
2023-02-24T05:42:53.814Z,7.19
2023-02-24T05:43:27.809Z,7.21
2023-02-24T05:44:02.468Z,7.24
2023-02-24T05:44:35.736Z,7.29
2023-02-24T05:45:11.412Z,7.27
2023-02-24T05:45:43.467Z,7.24
2023-02-24T05:46:16.364Z,7.22
2023-02-24T05:46:49.754Z,7.18
2023-02-24T05:47:23.340Z,7.21
2023-02-24T05:47:55.170Z,7.21
2023-02-24T05:48:28.637Z,7.24
2023-02-24T05:49:04.230Z,7.21
2023-02-24T05:49:36.049Z,7.21
2023-02-24T05:50:09.443Z,7.27
2023-02-24T05:50:46.245Z,7.27
2023-02-24T05:51:18.174Z,7.24
2023-02-24T05:51:57.316Z,7.27
2023-02-24T05:52:29.066Z,7.22
2023-02-24T05:53:01.388Z,7.21
2023-02-24T05:53:33.528Z,7.24
2023-02-24T05:54:10.758Z,7.28
2023-02-24T05:54:44.197Z,7.24
2023-02-24T05:55:16.340Z,7.27
2023-02-24T05:55:47.882Z,7.27
2023-02-24T05:56:19.619Z,7.19
2023-02-24T05:56:51.888Z,7.25
2023-02-24T05:57:27.500Z,7.18
2023-02-24T05:57:59.769Z,7.17
2023-02-24T05:58:32.413Z,7.19
2023-02-24T05:59:07.736Z,7.22
2023-02-24T05:59:41.386Z,7.24
2023-02-24T06:00:17.393Z,7.24
2023-02-24T06:00:48.967Z,7.24
2023-02-24T06:01:21.879Z,7.28
2023-02-24T06:01:53.745Z,7.29
2023-02-24T06:02:29.559Z,7.29
2023-02-24T06:03:08.561Z,7.28
2023-02-24T06:03:45.728Z,7.32
2023-02-24T06:04:35.943Z,7.29
2023-02-24T06:05:08.944Z,7.34
2023-02-24T06:05:42.672Z,7.35
2023-02-24T06:06:16.706Z,7.32
2023-02-24T06:06:52.670Z,7.35
2023-02-24T06:07:29.109Z,7.38
2023-02-24T06:08:11.764Z,7.45
2023-02-24T06:08:50.716Z,7.42
2023-02-24T06:09:23.466Z,7.48
2023-02-24T06:09:58.994Z,7.44
2023-02-24T06:10:33.768Z,7.42
2023-02-24T06:11:05.391Z,7.39
2023-02-24T06:11:38.268Z,7.41
2023-02-24T06:12:10.773Z,7.45
2023-02-24T06:12:42.431Z,7.45
2023-02-24T06:13:14.264Z,7.41
2023-02-24T06:13:49.770Z,7.44
2023-02-24T06:14:22.475Z,7.51
2023-02-24T06:14:54.270Z,7.52
2023-02-24T06:15:25.948Z,7.54
2023-02-24T06:15:57.556Z,7.54
2023-02-24T06:16:30.520Z,7.52
2023-02-24T06:17:02.899Z,7.49
2023-02-24T06:17:34.526Z,7.48
2023-02-24T06:18:07.142Z,7.49
2023-02-24T06:18:40.876Z,7.54
2023-02-24T06:19:13.402Z,7.46
2023-02-24T06:19:46.917Z,7.54
2023-02-24T06:20:18.780Z,7.59
2023-02-24T06:20:51.387Z,7.61
2023-02-24T06:21:23.346Z,7.62
2023-02-24T06:21:55.775Z,7.63
2023-02-24T06:22:27.915Z,7.59
2023-02-24T06:22:59.638Z,7.59
2023-02-24T06:23:33.889Z,7.55
2023-02-24T06:24:06.011Z,7.61
2023-02-24T06:24:37.894Z,7.58
2023-02-24T06:25:12.088Z,7.63
2023-02-24T06:25:44.843Z,7.67
2023-02-24T06:26:19.713Z,7.61
2023-02-24T06:26:54.123Z,7.66
2023-02-24T06:27:25.830Z,7.66
2023-02-24T06:28:01.881Z,7.73
2023-02-24T06:28:33.655Z,7.66
2023-02-24T06:29:05.606Z,7.66
2023-02-24T06:29:37.929Z,7.62
2023-02-24T06:30:10.491Z,7.62
2023-02-24T06:30:42.238Z,7.55
2023-02-24T06:31:15.145Z,7.67
2023-02-24T06:31:48.667Z,7.56
2023-02-24T06:32:23.858Z,7.72
2023-02-24T06:32:56.904Z,7.61
2023-02-24T06:33:28.587Z,7.54
2023-02-24T06:34:00.326Z,7.56
2023-02-24T06:34:33.210Z,7.51
2023-02-24T06:35:05.258Z,8.03
2023-02-24T06:35:38.961Z,8.01
2023-02-24T06:36:10.596Z,8.56
2023-02-24T06:36:43.633Z,8.35
2023-02-24T06:37:16.000Z,8.08
2023-02-24T06:37:48.137Z,8.30
2023-02-24T06:38:19.714Z,8.55
2023-02-24T06:38:52.784Z,8.31
2023-02-24T06:39:24.466Z,8.08
2023-02-24T06:39:58.498Z,7.98
2023-02-24T06:40:31.502Z,7.87
2023-02-24T06:41:10.781Z,7.80
2023-02-24T06:41:42.766Z,7.73
2023-02-24T06:42:15.215Z,7.69
2023-02-24T06:42:55.348Z,7.65
2023-02-24T06:43:26.949Z,7.83
2023-02-24T06:43:58.898Z,7.79
2023-02-24T06:44:35.014Z,7.72
2023-02-24T06:45:08.481Z,7.79
2023-02-24T06:45:40.355Z,7.75
2023-02-24T06:46:14.449Z,7.73
2023-02-24T06:46:46.371Z,7.72
2023-02-24T06:47:18.158Z,7.73
2023-02-24T06:47:50.116Z,7.76
2023-02-24T06:48:23.094Z,7.79
2023-02-24T06:48:54.694Z,7.75
2023-02-24T06:49:26.881Z,7.72
2023-02-24T06:49:58.479Z,7.77
2023-02-24T06:50:31.073Z,7.77
2023-02-24T06:51:13.733Z,7.85
2023-02-24T06:51:45.379Z,7.80
2023-02-24T06:52:19.173Z,7.91
2023-02-24T06:52:55.066Z,8.00
2023-02-24T06:53:26.784Z,7.94
2023-02-24T06:53:59.687Z,7.97
2023-02-24T06:54:34.805Z,7.94
2023-02-24T06:55:25.671Z,7.96
2023-02-24T06:55:57.402Z,7.86
2023-02-24T06:56:30.350Z,7.83
2023-02-24T06:57:04.539Z,7.77
2023-02-24T06:57:36.149Z,7.80
2023-02-24T06:58:16.465Z,7.79
2023-02-24T06:58:53.207Z,7.82
2023-02-24T06:59:28.704Z,7.86
2023-02-24T07:00:17.052Z,7.85
2023-02-24T07:00:56.916Z,7.89
2023-02-24T07:01:29.310Z,7.93
2023-02-24T07:02:03.462Z,7.89
2023-02-24T07:02:39.706Z,7.86
2023-02-24T07:03:17.054Z,7.85
2023-02-24T07:04:07.502Z,7.76
2023-02-24T07:04:44.146Z,7.75
2023-02-24T07:05:17.082Z,7.73
2023-02-24T07:06:11.221Z,7.87
2023-02-24T07:06:45.281Z,7.86
2023-02-24T07:07:17.734Z,7.86
2023-02-24T07:07:49.506Z,7.87
2023-02-24T07:08:23.156Z,7.91
2023-02-24T07:08:55.405Z,7.94
2023-02-24T07:09:27.162Z,8.03
2023-02-24T07:09:58.786Z,8.01
2023-02-24T07:10:30.389Z,8.04
2023-02-24T07:11:02.188Z,8.07
2023-02-24T07:11:35.684Z,8.01
2023-02-24T07:12:08.059Z,8.07
2023-02-24T07:12:41.303Z,8.10
2023-02-24T07:13:13.604Z,8.07
2023-02-24T07:13:49.335Z,8.01
2023-02-24T07:14:24.188Z,8.08
2023-02-24T07:14:55.943Z,8.08
2023-02-24T07:15:32.123Z,8.08
2023-02-24T07:16:07.506Z,8.10
2023-02-24T07:16:45.407Z,8.21
2023-02-24T07:17:19.080Z,8.37
2023-02-24T07:17:54.328Z,8.37
2023-02-24T07:18:27.781Z,8.40
2023-02-24T07:19:02.749Z,8.37
2023-02-24T07:19:34.353Z,8.44
2023-02-24T07:20:11.777Z,8.42
2023-02-24T07:20:46.187Z,8.44
2023-02-24T07:21:18.017Z,8.35
2023-02-24T07:21:52.624Z,8.40
2023-02-24T07:22:25.353Z,8.46
2023-02-24T07:22:57.071Z,8.52
2023-02-24T07:23:29.389Z,8.46
2023-02-24T07:24:04.081Z,8.59
2023-02-24T07:24:37.313Z,8.58
2023-02-24T07:25:09.116Z,8.54
2023-02-24T07:25:43.312Z,8.51
2023-02-24T07:26:18.478Z,8.62
2023-02-24T07:26:56.411Z,8.69
2023-02-24T07:27:28.219Z,8.76
2023-02-24T07:28:03.569Z,8.55
2023-02-24T07:28:35.201Z,8.66
2023-02-24T07:29:06.816Z,8.69
2023-02-24T07:29:39.742Z,8.68
2023-02-24T07:30:12.168Z,8.68
2023-02-24T07:30:43.940Z,8.72
2023-02-24T07:31:18.859Z,8.73
2023-02-24T07:31:54.998Z,8.64
2023-02-24T07:32:27.893Z,8.61
2023-02-24T07:33:00.495Z,8.51
2023-02-24T07:33:34.334Z,8.42
2023-02-24T07:34:06.472Z,8.35
2023-02-24T07:34:41.452Z,8.38
2023-02-24T07:35:14.589Z,8.44
2023-02-24T07:35:52.348Z,8.45
2023-02-24T07:36:24.735Z,8.51
2023-02-24T07:36:58.303Z,8.45
2023-02-24T07:37:32.027Z,8.52
2023-02-24T07:38:05.632Z,8.55
2023-02-24T07:38:38.558Z,8.56
2023-02-24T07:39:11.844Z,8.65
2023-02-24T07:39:43.458Z,8.68
2023-02-24T07:40:17.398Z,8.65
2023-02-24T07:40:50.063Z,8.69
2023-02-24T07:41:23.665Z,8.79
2023-02-24T07:41:55.665Z,8.69
2023-02-24T07:42:30.650Z,8.76
2023-02-24T07:43:02.552Z,8.89
2023-02-24T07:43:34.742Z,8.93
2023-02-24T07:44:09.567Z,8.97
2023-02-24T07:44:42.662Z,8.96
2023-02-24T07:45:14.608Z,8.93
2023-02-24T07:45:47.568Z,8.92
2023-02-24T07:46:25.393Z,8.99
2023-02-24T07:46:59.224Z,9.09
2023-02-24T07:47:32.900Z,9.22
2023-02-24T07:48:04.616Z,9.20
2023-02-24T07:48:40.016Z,9.27
2023-02-24T07:49:14.778Z,9.10
2023-02-24T07:49:46.437Z,9.14
2023-02-24T07:50:18.684Z,9.23
2023-02-24T07:50:50.882Z,9.33
2023-02-24T07:51:27.410Z,9.35
2023-02-24T07:51:59.127Z,9.54
2023-02-24T07:52:32.873Z,9.47
2023-02-24T07:53:05.584Z,9.48
2023-02-24T07:53:37.544Z,9.41
2023-02-24T07:54:11.596Z,9.37
2023-02-24T07:54:43.286Z,9.40
2023-02-24T07:55:15.812Z,9.37
2023-02-24T07:55:47.551Z,9.47
2023-02-24T07:56:27.044Z,9.59
2023-02-24T07:56:59.617Z,9.45